sensor_id;sensor_type;location;lat;lon;timestamp;P1;durP1;ratioP1;P2;durP2;ratioP2
72095;SDS011;59968;51.084;16.748;2024-03-02T00:00:26;66.20;;;33.30;;
72095;SDS011;59968;51.084;16.748;2024-03-02T00:03:16;67.20;;;33.50;;
72095;SDS011;59968;51.084;16.748;2024-03-02T00:05:49;72.40;;;34.40;;
72095;SDS011;59968;51.084;16.748;2024-03-02T00:08:22;70.90;;;35.00;;
72095;SDS011;59968;51.084;16.748;2024-03-02T00:10:57;75.10;;;36.50;;
72095;SDS011;59968;51.084;16.748;2024-03-02T00:13:28;72.00;;;35.20;;
72095;SDS011;59968;51.084;16.748;2024-03-02T00:16:01;70.80;;;35.10;;
72095;SDS011;59968;51.084;16.748;2024-03-02T00:18:34;71.10;;;35.10;;
72095;SDS011;59968;51.084;16.748;2024-03-02T00:21:07;72.20;;;33.90;;
72095;SDS011;59968;51.084;16.748;2024-03-02T00:23:41;71.70;;;36.10;;
72095;SDS011;59968;51.084;16.748;2024-03-02T00:26:11;69.80;;;34.40;;
72095;SDS011;59968;51.084;16.748;2024-03-02T00:28:41;77.50;;;35.60;;
72095;SDS011;59968;51.084;16.748;2024-03-02T00:31:13;72.90;;;35.40;;
72095;SDS011;59968;51.084;16.748;2024-03-02T00:33:43;76.40;;;35.40;;
72095;SDS011;59968;51.084;16.748;2024-03-02T00:36:15;72.90;;;34.30;;
72095;SDS011;59968;51.084;16.748;2024-03-02T00:38:53;66.30;;;33.80;;
72095;SDS011;59968;51.084;16.748;2024-03-02T00:41:24;74.90;;;35.60;;
72095;SDS011;59968;51.084;16.748;2024-03-02T00:43:58;80.00;;;38.50;;
72095;SDS011;59968;51.084;16.748;2024-03-02T00:46:35;75.90;;;35.50;;
72095;SDS011;59968;51.084;16.748;2024-03-02T00:49:05;74.90;;;36.10;;
72095;SDS011;59968;51.084;16.748;2024-03-02T00:51:50;72.90;;;33.90;;
72095;SDS011;59968;51.084;16.748;2024-03-02T00:54:25;80.70;;;37.80;;
72095;SDS011;59968;51.084;16.748;2024-03-02T00:56:55;80.60;;;37.40;;
72095;SDS011;59968;51.084;16.748;2024-03-02T00:59:26;82.50;;;37.90;;
72095;SDS011;59968;51.084;16.748;2024-03-02T01:01:56;79.00;;;37.10;;
72095;SDS011;59968;51.084;16.748;2024-03-02T01:04:25;81.50;;;37.90;;
72095;SDS011;59968;51.084;16.748;2024-03-02T01:06:54;76.70;;;36.30;;
72095;SDS011;59968;51.084;16.748;2024-03-02T01:09:26;74.30;;;36.20;;
72095;SDS011;59968;51.084;16.748;2024-03-02T01:11:55;76.00;;;35.50;;
72095;SDS011;59968;51.084;16.748;2024-03-02T01:14:24;83.00;;;38.10;;
72095;SDS011;59968;51.084;16.748;2024-03-02T01:16:54;81.70;;;38.00;;
72095;SDS011;59968;51.084;16.748;2024-03-02T01:19:25;79.30;;;37.50;;
72095;SDS011;59968;51.084;16.748;2024-03-02T01:21:55;79.10;;;37.40;;
72095;SDS011;59968;51.084;16.748;2024-03-02T01:24:24;77.90;;;39.50;;
72095;SDS011;59968;51.084;16.748;2024-03-02T01:26:53;83.80;;;39.00;;
72095;SDS011;59968;51.084;16.748;2024-03-02T01:29:22;79.50;;;37.10;;
72095;SDS011;59968;51.084;16.748;2024-03-02T01:31:51;76.10;;;35.50;;
72095;SDS011;59968;51.084;16.748;2024-03-02T01:34:22;85.40;;;38.10;;
72095;SDS011;59968;51.084;16.748;2024-03-02T01:36:50;77.20;;;37.30;;
72095;SDS011;59968;51.084;16.748;2024-03-02T01:39:20;82.20;;;38.20;;
72095;SDS011;59968;51.084;16.748;2024-03-02T01:41:49;84.10;;;38.80;;
72095;SDS011;59968;51.084;16.748;2024-03-02T01:44:19;76.70;;;36.20;;
72095;SDS011;59968;51.084;16.748;2024-03-02T01:46:48;84.40;;;39.20;;
72095;SDS011;59968;51.084;16.748;2024-03-02T01:49:17;84.90;;;39.30;;
72095;SDS011;59968;51.084;16.748;2024-03-02T01:51:47;88.90;;;41.20;;
72095;SDS011;59968;51.084;16.748;2024-03-02T01:54:16;84.80;;;38.60;;
72095;SDS011;59968;51.084;16.748;2024-03-02T01:56:51;85.40;;;39.10;;
72095;SDS011;59968;51.084;16.748;2024-03-02T01:59:20;81.60;;;37.80;;
72095;SDS011;59968;51.084;16.748;2024-03-02T02:01:49;83.90;;;39.70;;
72095;SDS011;59968;51.084;16.748;2024-03-02T02:04:18;81.80;;;38.50;;
72095;SDS011;59968;51.084;16.748;2024-03-02T02:06:50;77.80;;;36.90;;
72095;SDS011;59968;51.084;16.748;2024-03-02T02:09:20;90.20;;;39.50;;
72095;SDS011;59968;51.084;16.748;2024-03-02T02:11:50;82.80;;;39.00;;
72095;SDS011;59968;51.084;16.748;2024-03-02T02:14:24;74.60;;;35.40;;
72095;SDS011;59968;51.084;16.748;2024-03-02T02:16:54;78.20;;;36.60;;
72095;SDS011;59968;51.084;16.748;2024-03-02T02:19:28;78.80;;;38.30;;
72095;SDS011;59968;51.084;16.748;2024-03-02T02:21:57;81.90;;;37.20;;
72095;SDS011;59968;51.084;16.748;2024-03-02T02:24:26;83.50;;;38.00;;
72095;SDS011;59968;51.084;16.748;2024-03-02T02:26:55;77.40;;;37.50;;
72095;SDS011;59968;51.084;16.748;2024-03-02T02:29:25;84.80;;;37.60;;
72095;SDS011;59968;51.084;16.748;2024-03-02T02:31:54;74.10;;;35.10;;
72095;SDS011;59968;51.084;16.748;2024-03-02T02:34:23;80.10;;;37.10;;
72095;SDS011;59968;51.084;16.748;2024-03-02T02:36:52;82.40;;;37.40;;
72095;SDS011;59968;51.084;16.748;2024-03-02T02:39:23;79.40;;;38.10;;
72095;SDS011;59968;51.084;16.748;2024-03-02T02:41:52;77.80;;;37.80;;
72095;SDS011;59968;51.084;16.748;2024-03-02T02:44:21;81.30;;;37.80;;
72095;SDS011;59968;51.084;16.748;2024-03-02T02:46:50;76.80;;;37.50;;
72095;SDS011;59968;51.084;16.748;2024-03-02T02:49:19;81.30;;;37.30;;
72095;SDS011;59968;51.084;16.748;2024-03-02T02:51:49;83.80;;;37.10;;
72095;SDS011;59968;51.084;16.748;2024-03-02T02:54:18;75.00;;;36.50;;
72095;SDS011;59968;51.084;16.748;2024-03-02T02:56:47;73.90;;;35.50;;
72095;SDS011;59968;51.084;16.748;2024-03-02T02:59:17;75.90;;;36.60;;
72095;SDS011;59968;51.084;16.748;2024-03-02T03:01:45;77.20;;;35.90;;
72095;SDS011;59968;51.084;16.748;2024-03-02T03:04:15;77.10;;;36.40;;
72095;SDS011;59968;51.084;16.748;2024-03-02T03:06:44;69.80;;;35.20;;
72095;SDS011;59968;51.084;16.748;2024-03-02T03:09:14;69.90;;;34.70;;
72095;SDS011;59968;51.084;16.748;2024-03-02T03:11:43;72.80;;;36.30;;
72095;SDS011;59968;51.084;16.748;2024-03-02T03:14:12;77.80;;;36.90;;
72095;SDS011;59968;51.084;16.748;2024-03-02T03:16:41;71.20;;;35.20;;
72095;SDS011;59968;51.084;16.748;2024-03-02T03:19:11;72.20;;;35.80;;
72095;SDS011;59968;51.084;16.748;2024-03-02T03:21:39;71.00;;;34.10;;
72095;SDS011;59968;51.084;16.748;2024-03-02T03:24:09;76.60;;;37.40;;
72095;SDS011;59968;51.084;16.748;2024-03-02T03:26:38;70.60;;;34.80;;
72095;SDS011;59968;51.084;16.748;2024-03-02T03:29:07;74.80;;;35.40;;
72095;SDS011;59968;51.084;16.748;2024-03-02T03:31:36;71.40;;;35.10;;
72095;SDS011;59968;51.084;16.748;2024-03-02T03:34:04;71.30;;;34.00;;
72095;SDS011;59968;51.084;16.748;2024-03-02T03:36:36;75.90;;;36.70;;
72095;SDS011;59968;51.084;16.748;2024-03-02T03:39:05;74.30;;;34.60;;
72095;SDS011;59968;51.084;16.748;2024-03-02T03:41:34;76.60;;;36.20;;
72095;SDS011;59968;51.084;16.748;2024-03-02T03:44:03;75.60;;;34.10;;
72095;SDS011;59968;51.084;16.748;2024-03-02T03:46:32;72.10;;;33.40;;
72095;SDS011;59968;51.084;16.748;2024-03-02T03:49:01;71.60;;;34.90;;
72095;SDS011;59968;51.084;16.748;2024-03-02T03:51:30;70.90;;;34.60;;
72095;SDS011;59968;51.084;16.748;2024-03-02T03:53:59;69.00;;;32.20;;
72095;SDS011;59968;51.084;16.748;2024-03-02T03:56:28;73.40;;;34.00;;
72095;SDS011;59968;51.084;16.748;2024-03-02T03:58:57;77.80;;;35.90;;
72095;SDS011;59968;51.084;16.748;2024-03-02T04:01:28;74.30;;;34.30;;
72095;SDS011;59968;51.084;16.748;2024-03-02T04:03:57;65.60;;;31.80;;
72095;SDS011;59968;51.084;16.748;2024-03-02T04:06:33;78.00;;;35.70;;
72095;SDS011;59968;51.084;16.748;2024-03-02T04:09:02;67.00;;;31.70;;
72095;SDS011;59968;51.084;16.748;2024-03-02T04:11:32;68.20;;;31.80;;
72095;SDS011;59968;51.084;16.748;2024-03-02T04:14:01;77.80;;;36.90;;
72095;SDS011;59968;51.084;16.748;2024-03-02T04:16:33;73.80;;;34.20;;
72095;SDS011;59968;51.084;16.748;2024-03-02T04:19:02;72.60;;;33.90;;
72095;SDS011;59968;51.084;16.748;2024-03-02T04:21:32;71.10;;;34.70;;
72095;SDS011;59968;51.084;16.748;2024-03-02T04:24:01;70.90;;;33.90;;
72095;SDS011;59968;51.084;16.748;2024-03-02T04:26:30;73.10;;;33.40;;
72095;SDS011;59968;51.084;16.748;2024-03-02T04:28:59;64.00;;;31.10;;
72095;SDS011;59968;51.084;16.748;2024-03-02T04:31:28;73.70;;;34.00;;
72095;SDS011;59968;51.084;16.748;2024-03-02T04:34:03;69.60;;;33.70;;
72095;SDS011;59968;51.084;16.748;2024-03-02T04:36:32;68.40;;;33.60;;
72095;SDS011;59968;51.084;16.748;2024-03-02T04:39:02;64.60;;;31.80;;
72095;SDS011;59968;51.084;16.748;2024-03-02T04:41:31;69.20;;;33.30;;
72095;SDS011;59968;51.084;16.748;2024-03-02T04:44:00;70.40;;;32.60;;
72095;SDS011;59968;51.084;16.748;2024-03-02T04:46:29;75.80;;;34.50;;
72095;SDS011;59968;51.084;16.748;2024-03-02T04:48:59;69.30;;;32.70;;
72095;SDS011;59968;51.084;16.748;2024-03-02T04:51:29;77.80;;;33.60;;
72095;SDS011;59968;51.084;16.748;2024-03-02T04:53:58;71.50;;;31.80;;
72095;SDS011;59968;51.084;16.748;2024-03-02T04:56:27;66.90;;;31.80;;
72095;SDS011;59968;51.084;16.748;2024-03-02T04:59:12;68.90;;;33.00;;
72095;SDS011;59968;51.084;16.748;2024-03-02T05:01:40;65.90;;;32.10;;
72095;SDS011;59968;51.084;16.748;2024-03-02T05:04:10;66.70;;;33.20;;
72095;SDS011;59968;51.084;16.748;2024-03-02T05:06:40;62.10;;;31.30;;
72095;SDS011;59968;51.084;16.748;2024-03-02T05:09:09;68.30;;;31.70;;
72095;SDS011;59968;51.084;16.748;2024-03-02T05:11:38;64.80;;;32.00;;
72095;SDS011;59968;51.084;16.748;2024-03-02T05:14:07;69.30;;;32.80;;
72095;SDS011;59968;51.084;16.748;2024-03-02T05:16:38;64.50;;;31.40;;
72095;SDS011;59968;51.084;16.748;2024-03-02T05:19:08;65.10;;;31.00;;
72095;SDS011;59968;51.084;16.748;2024-03-02T05:21:37;66.50;;;31.00;;
72095;SDS011;59968;51.084;16.748;2024-03-02T05:24:06;62.80;;;31.90;;
72095;SDS011;59968;51.084;16.748;2024-03-02T05:26:35;65.60;;;30.00;;
72095;SDS011;59968;51.084;16.748;2024-03-02T05:29:04;63.00;;;31.10;;
72095;SDS011;59968;51.084;16.748;2024-03-02T05:31:33;61.40;;;31.00;;
72095;SDS011;59968;51.084;16.748;2024-03-02T05:34:02;63.70;;;31.40;;
72095;SDS011;59968;51.084;16.748;2024-03-02T05:36:31;68.00;;;31.80;;
72095;SDS011;59968;51.084;16.748;2024-03-02T05:39:00;67.60;;;30.30;;
72095;SDS011;59968;51.084;16.748;2024-03-02T05:41:30;60.20;;;30.10;;
72095;SDS011;59968;51.084;16.748;2024-03-02T05:43:59;63.10;;;30.30;;
72095;SDS011;59968;51.084;16.748;2024-03-02T05:46:31;62.70;;;31.60;;
72095;SDS011;59968;51.084;16.748;2024-03-02T05:49:01;65.70;;;31.70;;
72095;SDS011;59968;51.084;16.748;2024-03-02T05:51:30;62.60;;;30.40;;
72095;SDS011;59968;51.084;16.748;2024-03-02T05:53:59;65.00;;;30.60;;
72095;SDS011;59968;51.084;16.748;2024-03-02T05:56:28;62.20;;;30.00;;
72095;SDS011;59968;51.084;16.748;2024-03-02T05:58:57;61.10;;;30.30;;
72095;SDS011;59968;51.084;16.748;2024-03-02T06:01:37;67.10;;;31.70;;
72095;SDS011;59968;51.084;16.748;2024-03-02T06:04:09;61.80;;;30.40;;
72095;SDS011;59968;51.084;16.748;2024-03-02T06:06:42;66.50;;;30.80;;
72095;SDS011;59968;51.084;16.748;2024-03-02T06:09:14;61.40;;;28.90;;
72095;SDS011;59968;51.084;16.748;2024-03-02T06:11:44;61.90;;;30.30;;
72095;SDS011;59968;51.084;16.748;2024-03-02T06:14:14;63.90;;;31.10;;
72095;SDS011;59968;51.084;16.748;2024-03-02T06:16:43;63.00;;;30.40;;
72095;SDS011;59968;51.084;16.748;2024-03-02T06:19:14;63.50;;;30.50;;
72095;SDS011;59968;51.084;16.748;2024-03-02T06:21:43;60.70;;;28.90;;
72095;SDS011;59968;51.084;16.748;2024-03-02T06:24:13;60.00;;;29.70;;
72095;SDS011;59968;51.084;16.748;2024-03-02T06:26:42;63.50;;;30.70;;
72095;SDS011;59968;51.084;16.748;2024-03-02T06:29:11;68.20;;;31.40;;
72095;SDS011;59968;51.084;16.748;2024-03-02T06:31:43;67.50;;;30.90;;
72095;SDS011;59968;51.084;16.748;2024-03-02T06:34:13;61.40;;;31.00;;
72095;SDS011;59968;51.084;16.748;2024-03-02T06:36:43;61.30;;;30.80;;
72095;SDS011;59968;51.084;16.748;2024-03-02T06:39:12;63.10;;;31.10;;
72095;SDS011;59968;51.084;16.748;2024-03-02T06:41:40;59.40;;;29.50;;
72095;SDS011;59968;51.084;16.748;2024-03-02T06:44:10;60.20;;;29.90;;
72095;SDS011;59968;51.084;16.748;2024-03-02T06:46:39;63.90;;;30.50;;
72095;SDS011;59968;51.084;16.748;2024-03-02T06:49:08;65.70;;;30.80;;
72095;SDS011;59968;51.084;16.748;2024-03-02T06:51:39;61.50;;;29.50;;
72095;SDS011;59968;51.084;16.748;2024-03-02T06:54:08;68.00;;;32.10;;
72095;SDS011;59968;51.084;16.748;2024-03-02T06:56:37;61.30;;;30.60;;
72095;SDS011;59968;51.084;16.748;2024-03-02T06:59:07;67.20;;;31.30;;
72095;SDS011;59968;51.084;16.748;2024-03-02T07:01:37;66.40;;;31.70;;
72095;SDS011;59968;51.084;16.748;2024-03-02T07:04:06;62.80;;;30.50;;
72095;SDS011;59968;51.084;16.748;2024-03-02T07:06:35;64.50;;;31.00;;
72095;SDS011;59968;51.084;16.748;2024-03-02T07:09:04;60.70;;;31.20;;
72095;SDS011;59968;51.084;16.748;2024-03-02T07:11:33;67.30;;;32.00;;
72095;SDS011;59968;51.084;16.748;2024-03-02T07:14:03;63.20;;;31.00;;
72095;SDS011;59968;51.084;16.748;2024-03-02T07:16:32;64.80;;;30.50;;
72095;SDS011;59968;51.084;16.748;2024-03-02T07:19:03;59.50;;;29.90;;
72095;SDS011;59968;51.084;16.748;2024-03-02T07:21:32;65.80;;;30.60;;
72095;SDS011;59968;51.084;16.748;2024-03-02T07:24:03;62.00;;;29.40;;
72095;SDS011;59968;51.084;16.748;2024-03-02T07:26:33;63.80;;;30.80;;
72095;SDS011;59968;51.084;16.748;2024-03-02T07:29:04;63.40;;;30.30;;
72095;SDS011;59968;51.084;16.748;2024-03-02T07:31:34;60.40;;;29.70;;
72095;SDS011;59968;51.084;16.748;2024-03-02T07:34:04;64.80;;;30.50;;
72095;SDS011;59968;51.084;16.748;2024-03-02T07:36:32;59.40;;;30.60;;
72095;SDS011;59968;51.084;16.748;2024-03-02T07:39:01;59.90;;;29.50;;
72095;SDS011;59968;51.084;16.748;2024-03-02T07:41:30;58.70;;;29.90;;
72095;SDS011;59968;51.084;16.748;2024-03-02T07:43:59;62.20;;;30.60;;
72095;SDS011;59968;51.084;16.748;2024-03-02T07:46:27;59.50;;;29.20;;
72095;SDS011;59968;51.084;16.748;2024-03-02T07:48:59;61.20;;;31.00;;
72095;SDS011;59968;51.084;16.748;2024-03-02T07:51:28;61.00;;;32.00;;
72095;SDS011;59968;51.084;16.748;2024-03-02T07:53:57;60.00;;;30.50;;
72095;SDS011;59968;51.084;16.748;2024-03-02T07:56:26;57.50;;;28.80;;
72095;SDS011;59968;51.084;16.748;2024-03-02T07:58:56;55.30;;;28.50;;
72095;SDS011;59968;51.084;16.748;2024-03-02T08:01:29;51.90;;;25.90;;
72095;SDS011;59968;51.084;16.748;2024-03-02T08:04:02;49.00;;;24.80;;
72095;SDS011;59968;51.084;16.748;2024-03-02T08:06:34;43.40;;;23.40;;
72095;SDS011;59968;51.084;16.748;2024-03-02T08:09:03;41.80;;;22.70;;
72095;SDS011;59968;51.084;16.748;2024-03-02T08:11:37;40.20;;;20.30;;
72095;SDS011;59968;51.084;16.748;2024-03-02T08:14:07;42.10;;;22.50;;
72095;SDS011;59968;51.084;16.748;2024-03-02T08:16:36;38.70;;;19.90;;
72095;SDS011;59968;51.084;16.748;2024-03-02T08:19:05;40.50;;;19.30;;
72095;SDS011;59968;51.084;16.748;2024-03-02T08:21:35;40.70;;;20.90;;
72095;SDS011;59968;51.084;16.748;2024-03-02T08:24:05;43.80;;;20.60;;
72095;SDS011;59968;51.084;16.748;2024-03-02T08:26:34;34.50;;;17.20;;
72095;SDS011;59968;51.084;16.748;2024-03-02T08:29:03;32.80;;;17.00;;
72095;SDS011;59968;51.084;16.748;2024-03-02T08:31:32;36.90;;;19.00;;
72095;SDS011;59968;51.084;16.748;2024-03-02T08:34:01;34.40;;;17.90;;
72095;SDS011;59968;51.084;16.748;2024-03-02T08:36:30;35.30;;;19.20;;
72095;SDS011;59968;51.084;16.748;2024-03-02T08:38:58;35.60;;;18.30;;
72095;SDS011;59968;51.084;16.748;2024-03-02T08:41:27;33.90;;;18.50;;
72095;SDS011;59968;51.084;16.748;2024-03-02T08:43:57;35.80;;;19.10;;
72095;SDS011;59968;51.084;16.748;2024-03-02T08:46:26;34.10;;;18.10;;
72095;SDS011;59968;51.084;16.748;2024-03-02T08:48:56;35.10;;;18.70;;
72095;SDS011;59968;51.084;16.748;2024-03-02T08:51:25;35.80;;;19.40;;
72095;SDS011;59968;51.084;16.748;2024-03-02T08:53:54;35.40;;;19.30;;
72095;SDS011;59968;51.084;16.748;2024-03-02T08:56:23;33.70;;;17.40;;
72095;SDS011;59968;51.084;16.748;2024-03-02T08:58:53;35.90;;;20.20;;
72095;SDS011;59968;51.084;16.748;2024-03-02T09:01:22;40.70;;;21.70;;
72095;SDS011;59968;51.084;16.748;2024-03-02T09:03:52;37.60;;;19.50;;
72095;SDS011;59968;51.084;16.748;2024-03-02T09:06:21;35.40;;;19.60;;
72095;SDS011;59968;51.084;16.748;2024-03-02T09:08:49;41.80;;;22.90;;
72095;SDS011;59968;51.084;16.748;2024-03-02T09:11:20;42.90;;;23.90;;
72095;SDS011;59968;51.084;16.748;2024-03-02T09:13:49;45.10;;;23.60;;
72095;SDS011;59968;51.084;16.748;2024-03-02T09:16:17;49.40;;;27.80;;
72095;SDS011;59968;51.084;16.748;2024-03-02T09:18:46;47.00;;;25.80;;
72095;SDS011;59968;51.084;16.748;2024-03-02T09:21:15;39.60;;;21.90;;
72095;SDS011;59968;51.084;16.748;2024-03-02T09:23:44;37.60;;;19.10;;
72095;SDS011;59968;51.084;16.748;2024-03-02T09:26:14;45.10;;;23.90;;
72095;SDS011;59968;51.084;16.748;2024-03-02T09:28:43;44.20;;;23.50;;
72095;SDS011;59968;51.084;16.748;2024-03-02T09:31:12;41.30;;;22.30;;
72095;SDS011;59968;51.084;16.748;2024-03-02T09:33:41;40.20;;;23.20;;
72095;SDS011;59968;51.084;16.748;2024-03-02T09:36:17;41.90;;;23.20;;
72095;SDS011;59968;51.084;16.748;2024-03-02T09:38:47;42.90;;;25.40;;
72095;SDS011;59968;51.084;16.748;2024-03-02T09:41:16;46.60;;;24.00;;
72095;SDS011;59968;51.084;16.748;2024-03-02T09:43:46;36.80;;;20.70;;
72095;SDS011;59968;51.084;16.748;2024-03-02T09:46:15;43.10;;;24.00;;
72095;SDS011;59968;51.084;16.748;2024-03-02T09:48:45;44.00;;;23.60;;
72095;SDS011;59968;51.084;16.748;2024-03-02T09:51:14;45.60;;;25.30;;
72095;SDS011;59968;51.084;16.748;2024-03-02T09:53:49;44.30;;;25.60;;
72095;SDS011;59968;51.084;16.748;2024-03-02T09:56:20;41.40;;;22.90;;
72095;SDS011;59968;51.084;16.748;2024-03-02T09:58:50;40.50;;;23.00;;
72095;SDS011;59968;51.084;16.748;2024-03-02T10:01:20;40.20;;;23.40;;
72095;SDS011;59968;51.084;16.748;2024-03-02T10:03:49;41.50;;;22.90;;
72095;SDS011;59968;51.084;16.748;2024-03-02T10:08:52;43.20;;;24.20;;
72095;SDS011;59968;51.084;16.748;2024-03-02T10:14:05;41.30;;;23.20;;
72095;SDS011;59968;51.084;16.748;2024-03-02T10:16:41;42.40;;;23.30;;
72095;SDS011;59968;51.084;16.748;2024-03-02T10:19:45;36.10;;;20.20;;
72095;SDS011;59968;51.084;16.748;2024-03-02T10:22:08;39.90;;;21.80;;
72095;SDS011;59968;51.084;16.748;2024-03-02T10:24:42;37.40;;;21.40;;
72095;SDS011;59968;51.084;16.748;2024-03-02T10:27:26;37.40;;;20.40;;
72095;SDS011;59968;51.084;16.748;2024-03-02T10:29:57;38.10;;;21.80;;
72095;SDS011;59968;51.084;16.748;2024-03-02T10:32:26;38.00;;;21.10;;
72095;SDS011;59968;51.084;16.748;2024-03-02T10:34:55;34.80;;;20.60;;
72095;SDS011;59968;51.084;16.748;2024-03-02T10:37:24;37.50;;;21.50;;
72095;SDS011;59968;51.084;16.748;2024-03-02T10:39:53;33.00;;;19.70;;
72095;SDS011;59968;51.084;16.748;2024-03-02T10:42:21;33.80;;;19.30;;
72095;SDS011;59968;51.084;16.748;2024-03-02T10:44:53;32.00;;;18.40;;
72095;SDS011;59968;51.084;16.748;2024-03-02T10:47:22;37.00;;;19.80;;
72095;SDS011;59968;51.084;16.748;2024-03-02T10:49:53;35.40;;;19.90;;
72095;SDS011;59968;51.084;16.748;2024-03-02T10:52:24;35.40;;;20.10;;
72095;SDS011;59968;51.084;16.748;2024-03-02T10:54:53;34.80;;;20.10;;
72095;SDS011;59968;51.084;16.748;2024-03-02T10:57:22;36.10;;;19.40;;
72095;SDS011;59968;51.084;16.748;2024-03-02T11:00:01;32.80;;;18.50;;
72095;SDS011;59968;51.084;16.748;2024-03-02T11:02:31;32.20;;;19.90;;
72095;SDS011;59968;51.084;16.748;2024-03-02T11:05:04;35.60;;;19.30;;
72095;SDS011;59968;51.084;16.748;2024-03-02T11:07:37;32.00;;;18.90;;
72095;SDS011;59968;51.084;16.748;2024-03-02T11:10:09;36.80;;;19.80;;
72095;SDS011;59968;51.084;16.748;2024-03-02T11:12:42;33.90;;;19.50;;
72095;SDS011;59968;51.084;16.748;2024-03-02T11:15:17;31.70;;;18.30;;
72095;SDS011;59968;51.084;16.748;2024-03-02T11:17:49;34.50;;;18.30;;
72095;SDS011;59968;51.084;16.748;2024-03-02T11:20:19;33.00;;;18.20;;
72095;SDS011;59968;51.084;16.748;2024-03-02T11:22:48;36.50;;;20.70;;
72095;SDS011;59968;51.084;16.748;2024-03-02T11:25:27;31.50;;;18.30;;
72095;SDS011;59968;51.084;16.748;2024-03-02T11:27:59;33.70;;;19.20;;
72095;SDS011;59968;51.084;16.748;2024-03-02T11:33:04;33.70;;;18.50;;
72095;SDS011;59968;51.084;16.748;2024-03-02T11:35:42;30.10;;;18.10;;
72095;SDS011;59968;51.084;16.748;2024-03-02T11:38:15;28.20;;;16.30;;
72095;SDS011;59968;51.084;16.748;2024-03-02T11:40:46;34.40;;;17.80;;
72095;SDS011;59968;51.084;16.748;2024-03-02T11:43:15;28.30;;;16.00;;
72095;SDS011;59968;51.084;16.748;2024-03-02T11:45:44;32.00;;;18.70;;
72095;SDS011;59968;51.084;16.748;2024-03-02T11:48:14;32.70;;;18.10;;
72095;SDS011;59968;51.084;16.748;2024-03-02T11:50:47;31.50;;;18.20;;
72095;SDS011;59968;51.084;16.748;2024-03-02T11:53:18;29.60;;;17.00;;
72095;SDS011;59968;51.084;16.748;2024-03-02T11:55:48;31.10;;;17.90;;
72095;SDS011;59968;51.084;16.748;2024-03-02T11:58:18;30.80;;;17.10;;
72095;SDS011;59968;51.084;16.748;2024-03-02T12:00:53;31.20;;;17.50;;
72095;SDS011;59968;51.084;16.748;2024-03-02T12:03:24;30.70;;;17.90;;
72095;SDS011;59968;51.084;16.748;2024-03-02T12:05:55;33.10;;;18.70;;
72095;SDS011;59968;51.084;16.748;2024-03-02T12:08:24;31.50;;;18.00;;
72095;SDS011;59968;51.084;16.748;2024-03-02T12:10:58;30.70;;;18.60;;
72095;SDS011;59968;51.084;16.748;2024-03-02T12:13:28;33.40;;;18.30;;
72095;SDS011;59968;51.084;16.748;2024-03-02T12:15:57;30.10;;;17.00;;
72095;SDS011;59968;51.084;16.748;2024-03-02T12:18:26;28.20;;;16.10;;
72095;SDS011;59968;51.084;16.748;2024-03-02T12:20:56;26.90;;;15.00;;
72095;SDS011;59968;51.084;16.748;2024-03-02T12:23:27;24.40;;;14.00;;
72095;SDS011;59968;51.084;16.748;2024-03-02T12:25:56;24.10;;;13.20;;
72095;SDS011;59968;51.084;16.748;2024-03-02T12:28:25;23.00;;;13.70;;
72095;SDS011;59968;51.084;16.748;2024-03-02T12:30:54;26.60;;;15.20;;
72095;SDS011;59968;51.084;16.748;2024-03-02T12:33:23;26.80;;;14.80;;
72095;SDS011;59968;51.084;16.748;2024-03-02T12:35:52;26.80;;;14.70;;
72095;SDS011;59968;51.084;16.748;2024-03-02T12:38:21;24.70;;;13.80;;
72095;SDS011;59968;51.084;16.748;2024-03-02T12:40:54;24.60;;;14.70;;
72095;SDS011;59968;51.084;16.748;2024-03-02T12:43:22;27.90;;;16.10;;
72095;SDS011;59968;51.084;16.748;2024-03-02T12:45:52;26.60;;;14.40;;
72095;SDS011;59968;51.084;16.748;2024-03-02T12:48:24;23.70;;;13.80;;
72095;SDS011;59968;51.084;16.748;2024-03-02T12:50:53;25.90;;;14.40;;
72095;SDS011;59968;51.084;16.748;2024-03-02T12:53:22;26.30;;;14.90;;
72095;SDS011;59968;51.084;16.748;2024-03-02T12:55:51;26.10;;;14.60;;
72095;SDS011;59968;51.084;16.748;2024-03-02T12:58:20;26.10;;;13.80;;
72095;SDS011;59968;51.084;16.748;2024-03-02T13:01:05;23.00;;;13.80;;
72095;SDS011;59968;51.084;16.748;2024-03-02T13:03:39;25.90;;;13.30;;
72095;SDS011;59968;51.084;16.748;2024-03-02T13:06:08;24.90;;;13.30;;
72095;SDS011;59968;51.084;16.748;2024-03-02T13:08:37;23.90;;;13.60;;
72095;SDS011;59968;51.084;16.748;2024-03-02T13:11:07;23.40;;;12.70;;
72095;SDS011;59968;51.084;16.748;2024-03-02T13:13:36;21.90;;;12.60;;
72095;SDS011;59968;51.084;16.748;2024-03-02T13:16:10;24.10;;;13.70;;
72095;SDS011;59968;51.084;16.748;2024-03-02T13:18:41;26.30;;;13.50;;
72095;SDS011;59968;51.084;16.748;2024-03-02T13:21:11;22.70;;;12.60;;
72095;SDS011;59968;51.084;16.748;2024-03-02T13:23:40;22.20;;;13.10;;
72095;SDS011;59968;51.084;16.748;2024-03-02T13:26:09;24.70;;;13.70;;
72095;SDS011;59968;51.084;16.748;2024-03-02T13:28:41;20.50;;;12.70;;
72095;SDS011;59968;51.084;16.748;2024-03-02T13:31:10;25.90;;;13.40;;
72095;SDS011;59968;51.084;16.748;2024-03-02T13:33:39;22.20;;;12.60;;
72095;SDS011;59968;51.084;16.748;2024-03-02T13:36:08;20.50;;;11.90;;
72095;SDS011;59968;51.084;16.748;2024-03-02T13:38:37;23.70;;;11.60;;
72095;SDS011;59968;51.084;16.748;2024-03-02T13:41:07;22.60;;;12.20;;
72095;SDS011;59968;51.084;16.748;2024-03-02T13:43:35;18.50;;;12.10;;
72095;SDS011;59968;51.084;16.748;2024-03-02T13:46:06;20.20;;;11.60;;
72095;SDS011;59968;51.084;16.748;2024-03-02T13:48:36;21.10;;;11.90;;
72095;SDS011;59968;51.084;16.748;2024-03-02T13:51:05;25.40;;;13.00;;
72095;SDS011;59968;51.084;16.748;2024-03-02T13:53:34;23.70;;;13.40;;
72095;SDS011;59968;51.084;16.748;2024-03-02T13:56:03;23.50;;;13.70;;
72095;SDS011;59968;51.084;16.748;2024-03-02T13:58:32;24.60;;;14.30;;
72095;SDS011;59968;51.084;16.748;2024-03-02T14:01:02;28.30;;;14.70;;
72095;SDS011;59968;51.084;16.748;2024-03-02T14:03:33;28.80;;;16.30;;
72095;SDS011;59968;51.084;16.748;2024-03-02T14:06:03;31.00;;;16.30;;
72095;SDS011;59968;51.084;16.748;2024-03-02T14:08:32;27.50;;;15.90;;
72095;SDS011;59968;51.084;16.748;2024-03-02T14:11:04;26.60;;;14.70;;
72095;SDS011;59968;51.084;16.748;2024-03-02T14:13:33;29.20;;;15.60;;
72095;SDS011;59968;51.084;16.748;2024-03-02T14:16:02;26.80;;;15.40;;
72095;SDS011;59968;51.084;16.748;2024-03-02T14:18:34;26.10;;;16.10;;
72095;SDS011;59968;51.084;16.748;2024-03-02T14:21:03;27.90;;;15.20;;
72095;SDS011;59968;51.084;16.748;2024-03-02T14:23:34;26.50;;;15.90;;
72095;SDS011;59968;51.084;16.748;2024-03-02T14:26:03;28.20;;;15.40;;
72095;SDS011;59968;51.084;16.748;2024-03-02T14:28:32;25.70;;;15.10;;
72095;SDS011;59968;51.084;16.748;2024-03-02T14:31:18;28.30;;;16.00;;
72095;SDS011;59968;51.084;16.748;2024-03-02T14:33:48;28.80;;;17.00;;